Terminal Aerodrome Forecast
Issued by NWS Detroit/Pontiac, MI

Home | Current Version | Previous Version | Text Only | Print | Product List | Glossary On
Versions: 1 2 3 4 5 6 7 8 9 10 11 12 13 14 15 16 17 18 19 20 21 22 23 24 25 26
000
FTUS43 KDTX 291122
TAFDTW
TAF
KDTW 291122Z 2912/3018 02010KT P6SM SCT015 OVC050
     FM291400 03010KT P6SM BKN060 OVC200
     FM292200 04010KT P6SM -SHRA OVC050
     FM300200 04013G20KT P6SM -SHRA OVC040
     FM300700 06012KT 6SM -RA OVC025
     FM301200 07011KT 4SM -RA BR OVC016=

USA.gov is the U.S. government's official web portal to all federal, state and local government web resources and services.